sensor_id;sensor_type;location;lat;lon;timestamp;P1;durP1;ratioP1;P2;durP2;ratioP2
27818;SDS011;15192;44.854;10.046;2023-06-22T00:02:09;13.53;;;7.15;;
27818;SDS011;15192;44.854;10.046;2023-06-22T00:04:38;13.08;;;7.35;;
27818;SDS011;15192;44.854;10.046;2023-06-22T00:07:07;12.47;;;7.90;;
27818;SDS011;15192;44.854;10.046;2023-06-22T00:09:36;15.08;;;7.15;;
27818;SDS011;15192;44.854;10.046;2023-06-22T00:12:05;10.43;;;6.85;;
27818;SDS011;15192;44.854;10.046;2023-06-22T00:14:34;26.33;;;8.55;;
27818;SDS011;15192;44.854;10.046;2023-06-22T00:17:03;12.28;;;7.12;;
27818;SDS011;15192;44.854;10.046;2023-06-22T00:19:32;12.10;;;7.55;;
27818;SDS011;15192;44.854;10.046;2023-06-22T00:22:02;11.12;;;7.35;;
27818;SDS011;15192;44.854;10.046;2023-06-22T00:24:31;12.68;;;7.20;;
27818;SDS011;15192;44.854;10.046;2023-06-22T00:27:00;13.55;;;7.37;;
27818;SDS011;15192;44.854;10.046;2023-06-22T00:29:29;10.48;;;7.20;;
27818;SDS011;15192;44.854;10.046;2023-06-22T00:31:58;17.10;;;7.05;;
27818;SDS011;15192;44.854;10.046;2023-06-22T00:34:27;13.58;;;8.43;;
27818;SDS011;15192;44.854;10.046;2023-06-22T00:36:56;13.45;;;7.50;;
27818;SDS011;15192;44.854;10.046;2023-06-22T00:39:26;13.98;;;8.25;;
27818;SDS011;15192;44.854;10.046;2023-06-22T00:41:55;11.70;;;7.95;;
27818;SDS011;15192;44.854;10.046;2023-06-22T00:44:24;18.27;;;7.75;;
27818;SDS011;15192;44.854;10.046;2023-06-22T00:46:53;9.55;;;6.95;;
27818;SDS011;15192;44.854;10.046;2023-06-22T00:49:22;12.95;;;6.87;;
27818;SDS011;15192;44.854;10.046;2023-06-22T00:51:51;9.70;;;6.53;;
27818;SDS011;15192;44.854;10.046;2023-06-22T00:54:20;12.28;;;7.05;;
27818;SDS011;15192;44.854;10.046;2023-06-22T00:56:54;12.13;;;7.25;;
27818;SDS011;15192;44.854;10.046;2023-06-22T00:59:24;18.42;;;6.47;;
27818;SDS011;15192;44.854;10.046;2023-06-22T01:01:55;10.15;;;6.85;;
27818;SDS011;15192;44.854;10.046;2023-06-22T01:04:33;12.00;;;7.17;;
27818;SDS011;15192;44.854;10.046;2023-06-22T01:09:39;15.18;;;7.58;;
27818;SDS011;15192;44.854;10.046;2023-06-22T01:12:09;12.55;;;7.30;;
27818;SDS011;15192;44.854;10.046;2023-06-22T01:14:43;12.55;;;7.08;;
27818;SDS011;15192;44.854;10.046;2023-06-22T01:17:18;10.48;;;7.08;;
27818;SDS011;15192;44.854;10.046;2023-06-22T01:19:49;9.13;;;6.92;;
27818;SDS011;15192;44.854;10.046;2023-06-22T01:22:27;13.83;;;7.47;;
27818;SDS011;15192;44.854;10.046;2023-06-22T01:25:10;9.83;;;7.05;;
27818;SDS011;15192;44.854;10.046;2023-06-22T01:27:50;14.40;;;7.47;;
27818;SDS011;15192;44.854;10.046;2023-06-22T01:30:27;11.15;;;6.92;;
27818;SDS011;15192;44.854;10.046;2023-06-22T01:32:57;13.17;;;7.20;;
27818;SDS011;15192;44.854;10.046;2023-06-22T01:35:27;15.05;;;7.47;;
27818;SDS011;15192;44.854;10.046;2023-06-22T01:37:57;11.57;;;6.92;;
27818;SDS011;15192;44.854;10.046;2023-06-22T01:40:27;15.00;;;7.40;;
27818;SDS011;15192;44.854;10.046;2023-06-22T01:42:57;10.98;;;7.08;;
27818;SDS011;15192;44.854;10.046;2023-06-22T01:45:29;10.72;;;6.35;;
27818;SDS011;15192;44.854;10.046;2023-06-22T01:47:58;12.78;;;7.42;;
27818;SDS011;15192;44.854;10.046;2023-06-22T01:50:28;10.70;;;7.00;;
27818;SDS011;15192;44.854;10.046;2023-06-22T01:52:57;11.48;;;7.10;;
27818;SDS011;15192;44.854;10.046;2023-06-22T01:55:26;11.60;;;7.03;;
27818;SDS011;15192;44.854;10.046;2023-06-22T01:57:55;13.45;;;6.35;;
27818;SDS011;15192;44.854;10.046;2023-06-22T02:00:24;17.15;;;6.62;;
27818;SDS011;15192;44.854;10.046;2023-06-22T02:02:58;12.63;;;7.40;;
27818;SDS011;15192;44.854;10.046;2023-06-22T02:05:31;14.63;;;7.03;;
27818;SDS011;15192;44.854;10.046;2023-06-22T02:08:16;12.05;;;6.00;;
27818;SDS011;15192;44.854;10.046;2023-06-22T02:10:51;11.28;;;6.60;;
27818;SDS011;15192;44.854;10.046;2023-06-22T02:13:23;10.60;;;6.20;;
27818;SDS011;15192;44.854;10.046;2023-06-22T02:15:53;8.33;;;5.90;;
27818;SDS011;15192;44.854;10.046;2023-06-22T02:18:22;14.78;;;6.65;;
27818;SDS011;15192;44.854;10.046;2023-06-22T02:20:51;12.07;;;6.08;;
27818;SDS011;15192;44.854;10.046;2023-06-22T02:23:19;9.78;;;5.67;;
27818;SDS011;15192;44.854;10.046;2023-06-22T02:25:48;8.60;;;5.67;;
27818;SDS011;15192;44.854;10.046;2023-06-22T02:28:17;10.48;;;6.40;;
27818;SDS011;15192;44.854;10.046;2023-06-22T02:30:46;11.57;;;6.00;;
27818;SDS011;15192;44.854;10.046;2023-06-22T02:33:15;12.73;;;7.30;;
27818;SDS011;15192;44.854;10.046;2023-06-22T02:35:46;16.85;;;7.90;;
27818;SDS011;15192;44.854;10.046;2023-06-22T02:38:16;9.73;;;6.28;;
27818;SDS011;15192;44.854;10.046;2023-06-22T02:40:46;14.40;;;6.87;;
27818;SDS011;15192;44.854;10.046;2023-06-22T02:43:15;10.55;;;7.05;;
27818;SDS011;15192;44.854;10.046;2023-06-22T02:45:44;10.88;;;6.28;;
27818;SDS011;15192;44.854;10.046;2023-06-22T02:48:13;9.40;;;7.53;;
27818;SDS011;15192;44.854;10.046;2023-06-22T02:50:42;12.82;;;7.65;;
27818;SDS011;15192;44.854;10.046;2023-06-22T02:53:11;10.78;;;7.12;;
27818;SDS011;15192;44.854;10.046;2023-06-22T02:55:42;13.35;;;7.03;;
27818;SDS011;15192;44.854;10.046;2023-06-22T02:58:11;11.65;;;6.95;;
27818;SDS011;15192;44.854;10.046;2023-06-22T03:00:40;14.63;;;7.37;;
27818;SDS011;15192;44.854;10.046;2023-06-22T03:03:08;13.48;;;7.40;;
27818;SDS011;15192;44.854;10.046;2023-06-22T03:05:37;14.43;;;7.20;;
27818;SDS011;15192;44.854;10.046;2023-06-22T03:08:07;14.93;;;7.33;;
27818;SDS011;15192;44.854;10.046;2023-06-22T03:10:36;14.03;;;7.75;;
27818;SDS011;15192;44.854;10.046;2023-06-22T03:13:05;12.25;;;7.25;;
27818;SDS011;15192;44.854;10.046;2023-06-22T03:15:34;13.90;;;7.45;;
27818;SDS011;15192;44.854;10.046;2023-06-22T03:18:03;13.30;;;7.58;;
27818;SDS011;15192;44.854;10.046;2023-06-22T03:20:32;12.18;;;7.60;;
27818;SDS011;15192;44.854;10.046;2023-06-22T03:23:01;11.22;;;7.45;;
27818;SDS011;15192;44.854;10.046;2023-06-22T03:25:30;13.78;;;8.55;;
27818;SDS011;15192;44.854;10.046;2023-06-22T03:28:01;13.65;;;8.08;;
27818;SDS011;15192;44.854;10.046;2023-06-22T03:30:30;16.35;;;8.13;;
27818;SDS011;15192;44.854;10.046;2023-06-22T03:33:00;22.60;;;8.68;;
27818;SDS011;15192;44.854;10.046;2023-06-22T03:35:29;13.93;;;7.90;;
27818;SDS011;15192;44.854;10.046;2023-06-22T03:37:58;21.70;;;9.43;;
27818;SDS011;15192;44.854;10.046;2023-06-22T03:40:27;14.35;;;8.65;;
27818;SDS011;15192;44.854;10.046;2023-06-22T03:42:56;19.77;;;9.78;;
27818;SDS011;15192;44.854;10.046;2023-06-22T03:45:25;15.83;;;7.70;;
27818;SDS011;15192;44.854;10.046;2023-06-22T03:47:54;10.32;;;7.42;;
27818;SDS011;15192;44.854;10.046;2023-06-22T03:50:23;12.88;;;8.38;;
27818;SDS011;15192;44.854;10.046;2023-06-22T03:52:52;17.77;;;8.45;;
27818;SDS011;15192;44.854;10.046;2023-06-22T03:55:21;9.28;;;7.25;;
27818;SDS011;15192;44.854;10.046;2023-06-22T03:57:50;14.95;;;8.63;;
27818;SDS011;15192;44.854;10.046;2023-06-22T04:00:20;17.45;;;8.25;;
27818;SDS011;15192;44.854;10.046;2023-06-22T04:02:49;13.88;;;8.28;;
27818;SDS011;15192;44.854;10.046;2023-06-22T04:05:18;12.70;;;8.85;;
27818;SDS011;15192;44.854;10.046;2023-06-22T04:07:47;10.70;;;7.50;;
27818;SDS011;15192;44.854;10.046;2023-06-22T04:10:16;12.75;;;7.70;;
27818;SDS011;15192;44.854;10.046;2023-06-22T04:12:45;14.70;;;8.73;;
27818;SDS011;15192;44.854;10.046;2023-06-22T04:15:13;20.27;;;8.40;;
27818;SDS011;15192;44.854;10.046;2023-06-22T04:17:42;11.65;;;7.70;;
27818;SDS011;15192;44.854;10.046;2023-06-22T04:20:11;15.98;;;7.33;;
27818;SDS011;15192;44.854;10.046;2023-06-22T04:22:40;12.23;;;7.70;;
27818;SDS011;15192;44.854;10.046;2023-06-22T04:25:09;20.82;;;8.98;;
27818;SDS011;15192;44.854;10.046;2023-06-22T04:27:38;11.10;;;8.50;;
27818;SDS011;15192;44.854;10.046;2023-06-22T04:30:10;14.00;;;8.30;;
27818;SDS011;15192;44.854;10.046;2023-06-22T04:32:41;12.03;;;8.25;;
27818;SDS011;15192;44.854;10.046;2023-06-22T04:35:10;14.70;;;8.50;;
27818;SDS011;15192;44.854;10.046;2023-06-22T04:37:40;14.53;;;8.00;;
27818;SDS011;15192;44.854;10.046;2023-06-22T04:40:09;12.70;;;8.18;;
27818;SDS011;15192;44.854;10.046;2023-06-22T04:42:40;13.72;;;7.37;;
27818;SDS011;15192;44.854;10.046;2023-06-22T04:45:11;13.13;;;7.62;;
27818;SDS011;15192;44.854;10.046;2023-06-22T04:47:40;15.43;;;8.00;;
27818;SDS011;15192;44.854;10.046;2023-06-22T04:50:09;14.53;;;7.45;;
27818;SDS011;15192;44.854;10.046;2023-06-22T04:52:38;18.10;;;6.90;;
27818;SDS011;15192;44.854;10.046;2023-06-22T04:55:08;19.35;;;7.28;;
27818;SDS011;15192;44.854;10.046;2023-06-22T04:57:37;30.97;;;8.50;;
27818;SDS011;15192;44.854;10.046;2023-06-22T05:00:06;14.65;;;7.67;;
27818;SDS011;15192;44.854;10.046;2023-06-22T05:02:43;19.55;;;6.37;;
27818;SDS011;15192;44.854;10.046;2023-06-22T05:05:13;18.80;;;7.03;;
27818;SDS011;15192;44.854;10.046;2023-06-22T05:07:43;18.02;;;7.10;;
27818;SDS011;15192;44.854;10.046;2023-06-22T05:10:14;11.20;;;7.05;;
27818;SDS011;15192;44.854;10.046;2023-06-22T05:12:43;20.88;;;8.30;;
27818;SDS011;15192;44.854;10.046;2023-06-22T05:15:12;13.83;;;6.92;;
27818;SDS011;15192;44.854;10.046;2023-06-22T05:17:42;21.57;;;7.87;;
27818;SDS011;15192;44.854;10.046;2023-06-22T05:20:12;19.00;;;6.85;;
27818;SDS011;15192;44.854;10.046;2023-06-22T05:22:43;13.13;;;7.00;;
27818;SDS011;15192;44.854;10.046;2023-06-22T05:25:12;21.23;;;7.10;;
27818;SDS011;15192;44.854;10.046;2023-06-22T05:27:42;13.03;;;6.22;;
27818;SDS011;15192;44.854;10.046;2023-06-22T05:30:11;11.78;;;6.83;;
27818;SDS011;15192;44.854;10.046;2023-06-22T05:32:40;9.18;;;6.58;;
27818;SDS011;15192;44.854;10.046;2023-06-22T05:35:10;14.80;;;6.50;;
27818;SDS011;15192;44.854;10.046;2023-06-22T05:37:39;15.48;;;6.00;;
27818;SDS011;15192;44.854;10.046;2023-06-22T05:40:09;17.73;;;7.87;;
27818;SDS011;15192;44.854;10.046;2023-06-22T05:42:39;13.15;;;7.15;;
27818;SDS011;15192;44.854;10.046;2023-06-22T05:45:08;13.98;;;6.37;;
27818;SDS011;15192;44.854;10.046;2023-06-22T05:47:37;10.75;;;6.78;;
27818;SDS011;15192;44.854;10.046;2023-06-22T05:50:07;12.28;;;7.08;;
27818;SDS011;15192;44.854;10.046;2023-06-22T05:52:36;13.40;;;6.80;;
27818;SDS011;15192;44.854;10.046;2023-06-22T05:55:05;11.25;;;6.45;;
27818;SDS011;15192;44.854;10.046;2023-06-22T05:57:34;16.60;;;7.65;;
27818;SDS011;15192;44.854;10.046;2023-06-22T06:00:03;19.02;;;10.72;;
27818;SDS011;15192;44.854;10.046;2023-06-22T06:02:34;16.10;;;9.40;;
27818;SDS011;15192;44.854;10.046;2023-06-22T06:05:03;17.87;;;9.63;;
27818;SDS011;15192;44.854;10.046;2023-06-22T06:07:34;13.68;;;9.00;;
27818;SDS011;15192;44.854;10.046;2023-06-22T06:10:03;18.45;;;7.60;;
27818;SDS011;15192;44.854;10.046;2023-06-22T06:12:33;12.90;;;7.17;;
27818;SDS011;15192;44.854;10.046;2023-06-22T06:15:03;12.82;;;6.80;;
27818;SDS011;15192;44.854;10.046;2023-06-22T06:17:32;14.03;;;7.03;;
27818;SDS011;15192;44.854;10.046;2023-06-22T06:20:01;11.00;;;6.03;;
27818;SDS011;15192;44.854;10.046;2023-06-22T06:22:32;10.47;;;6.67;;
27818;SDS011;15192;44.854;10.046;2023-06-22T06:25:01;15.83;;;7.00;;
27818;SDS011;15192;44.854;10.046;2023-06-22T06:27:30;11.22;;;6.20;;
27818;SDS011;15192;44.854;10.046;2023-06-22T06:29:59;11.40;;;5.85;;
27818;SDS011;15192;44.854;10.046;2023-06-22T06:32:27;13.50;;;6.33;;
27818;SDS011;15192;44.854;10.046;2023-06-22T06:34:57;12.58;;;5.72;;
27818;SDS011;15192;44.854;10.046;2023-06-22T06:37:26;9.35;;;5.92;;
27818;SDS011;15192;44.854;10.046;2023-06-22T06:39:55;13.25;;;6.28;;
27818;SDS011;15192;44.854;10.046;2023-06-22T06:42:24;12.98;;;5.62;;
27818;SDS011;15192;44.854;10.046;2023-06-22T06:44:55;9.28;;;5.33;;
27818;SDS011;15192;44.854;10.046;2023-06-22T06:47:23;13.32;;;5.60;;
27818;SDS011;15192;44.854;10.046;2023-06-22T06:49:52;9.48;;;4.92;;
27818;SDS011;15192;44.854;10.046;2023-06-22T06:52:21;18.98;;;6.55;;
27818;SDS011;15192;44.854;10.046;2023-06-22T06:54:50;8.65;;;5.72;;
27818;SDS011;15192;44.854;10.046;2023-06-22T06:57:19;9.33;;;5.00;;
27818;SDS011;15192;44.854;10.046;2023-06-22T06:59:49;9.60;;;5.70;;
27818;SDS011;15192;44.854;10.046;2023-06-22T07:02:18;12.00;;;5.65;;
27818;SDS011;15192;44.854;10.046;2023-06-22T07:04:48;7.75;;;4.90;;
27818;SDS011;15192;44.854;10.046;2023-06-22T07:07:17;9.03;;;5.12;;
27818;SDS011;15192;44.854;10.046;2023-06-22T07:09:46;10.32;;;5.40;;
27818;SDS011;15192;44.854;10.046;2023-06-22T07:12:15;9.68;;;5.50;;
27818;SDS011;15192;44.854;10.046;2023-06-22T07:14:44;26.70;;;6.95;;
27818;SDS011;15192;44.854;10.046;2023-06-22T07:17:13;9.63;;;4.95;;
27818;SDS011;15192;44.854;10.046;2023-06-22T07:19:42;7.47;;;4.65;;
27818;SDS011;15192;44.854;10.046;2023-06-22T07:22:11;9.08;;;5.03;;
27818;SDS011;15192;44.854;10.046;2023-06-22T07:24:39;9.10;;;5.03;;
27818;SDS011;15192;44.854;10.046;2023-06-22T07:27:08;11.22;;;4.92;;
27818;SDS011;15192;44.854;10.046;2023-06-22T07:29:39;10.00;;;5.25;;
27818;SDS011;15192;44.854;10.046;2023-06-22T07:32:10;10.55;;;6.10;;
27818;SDS011;15192;44.854;10.046;2023-06-22T07:34:39;11.08;;;5.25;;
27818;SDS011;15192;44.854;10.046;2023-06-22T07:37:08;7.58;;;4.87;;
27818;SDS011;15192;44.854;10.046;2023-06-22T07:39:37;12.35;;;4.62;;
27818;SDS011;15192;44.854;10.046;2023-06-22T07:42:05;13.28;;;5.75;;
27818;SDS011;15192;44.854;10.046;2023-06-22T07:44:34;7.60;;;4.87;;
27818;SDS011;15192;44.854;10.046;2023-06-22T07:47:03;15.48;;;5.40;;
27818;SDS011;15192;44.854;10.046;2023-06-22T07:49:32;8.00;;;5.60;;
27818;SDS011;15192;44.854;10.046;2023-06-22T07:52:01;12.90;;;6.10;;
27818;SDS011;15192;44.854;10.046;2023-06-22T07:54:32;18.77;;;6.10;;
27818;SDS011;15192;44.854;10.046;2023-06-22T07:57:00;12.68;;;5.62;;
27818;SDS011;15192;44.854;10.046;2023-06-22T07:59:29;8.23;;;5.20;;
27818;SDS011;15192;44.854;10.046;2023-06-22T08:01:58;13.18;;;6.05;;
27818;SDS011;15192;44.854;10.046;2023-06-22T08:04:27;9.18;;;6.03;;
27818;SDS011;15192;44.854;10.046;2023-06-22T08:06:58;13.60;;;5.90;;
27818;SDS011;15192;44.854;10.046;2023-06-22T08:09:33;11.33;;;5.65;;
27818;SDS011;15192;44.854;10.046;2023-06-22T08:11:58;15.53;;;6.53;;
27818;SDS011;15192;44.854;10.046;2023-06-22T08:14:29;15.48;;;6.12;;
27818;SDS011;15192;44.854;10.046;2023-06-22T08:16:58;11.40;;;6.33;;
27818;SDS011;15192;44.854;10.046;2023-06-22T08:19:27;12.98;;;6.35;;
27818;SDS011;15192;44.854;10.046;2023-06-22T08:21:56;16.07;;;6.42;;
27818;SDS011;15192;44.854;10.046;2023-06-22T08:24:25;12.75;;;5.80;;
27818;SDS011;15192;44.854;10.046;2023-06-22T08:26:55;22.70;;;6.97;;
27818;SDS011;15192;44.854;10.046;2023-06-22T08:29:24;13.15;;;6.20;;
27818;SDS011;15192;44.854;10.046;2023-06-22T08:31:53;16.32;;;5.90;;
27818;SDS011;15192;44.854;10.046;2023-06-22T08:34:22;18.92;;;7.15;;
27818;SDS011;15192;44.854;10.046;2023-06-22T08:36:52;11.68;;;5.87;;
27818;SDS011;15192;44.854;10.046;2023-06-22T08:39:21;13.28;;;5.78;;
27818;SDS011;15192;44.854;10.046;2023-06-22T08:41:50;11.33;;;5.90;;
27818;SDS011;15192;44.854;10.046;2023-06-22T08:44:19;18.92;;;6.80;;
27818;SDS011;15192;44.854;10.046;2023-06-22T08:46:48;13.93;;;6.40;;
27818;SDS011;15192;44.854;10.046;2023-06-22T08:49:17;10.93;;;6.60;;
27818;SDS011;15192;44.854;10.046;2023-06-22T08:51:45;13.05;;;6.12;;
27818;SDS011;15192;44.854;10.046;2023-06-22T08:54:16;11.15;;;6.03;;
27818;SDS011;15192;44.854;10.046;2023-06-22T08:56:45;10.28;;;5.83;;
27818;SDS011;15192;44.854;10.046;2023-06-22T08:59:14;14.45;;;6.75;;
27818;SDS011;15192;44.854;10.046;2023-06-22T09:01:42;23.10;;;6.35;;
27818;SDS011;15192;44.854;10.046;2023-06-22T09:04:12;10.00;;;5.83;;
27818;SDS011;15192;44.854;10.046;2023-06-22T09:06:41;10.15;;;5.83;;
27818;SDS011;15192;44.854;10.046;2023-06-22T09:09:13;9.60;;;6.28;;
27818;SDS011;15192;44.854;10.046;2023-06-22T09:11:43;11.55;;;6.35;;
27818;SDS011;15192;44.854;10.046;2023-06-22T09:14:12;18.27;;;6.78;;
27818;SDS011;15192;44.854;10.046;2023-06-22T09:16:41;15.95;;;6.62;;
27818;SDS011;15192;44.854;10.046;2023-06-22T09:19:10;16.73;;;6.62;;
27818;SDS011;15192;44.854;10.046;2023-06-22T09:21:39;9.63;;;5.53;;
27818;SDS011;15192;44.854;10.046;2023-06-22T09:24:08;11.22;;;5.95;;
27818;SDS011;15192;44.854;10.046;2023-06-22T09:26:37;9.83;;;6.05;;
27818;SDS011;15192;44.854;10.046;2023-06-22T09:29:06;19.05;;;11.57;;
27818;SDS011;15192;44.854;10.046;2023-06-22T09:31:35;19.37;;;12.15;;
27818;SDS011;15192;44.854;10.046;2023-06-22T09:34:04;21.20;;;9.55;;
27818;SDS011;15192;44.854;10.046;2023-06-22T09:36:33;19.05;;;7.92;;
27818;SDS011;15192;44.854;10.046;2023-06-22T09:39:02;16.12;;;5.85;;
27818;SDS011;15192;44.854;10.046;2023-06-22T09:41:32;17.93;;;6.37;;
27818;SDS011;15192;44.854;10.046;2023-06-22T09:44:01;13.32;;;6.78;;
27818;SDS011;15192;44.854;10.046;2023-06-22T09:46:30;15.63;;;6.15;;
27818;SDS011;15192;44.854;10.046;2023-06-22T09:48:59;12.37;;;5.95;;
27818;SDS011;15192;44.854;10.046;2023-06-22T09:51:28;13.18;;;6.05;;
27818;SDS011;15192;44.854;10.046;2023-06-22T09:53:57;15.05;;;6.55;;
27818;SDS011;15192;44.854;10.046;2023-06-22T09:56:26;16.67;;;6.75;;
27818;SDS011;15192;44.854;10.046;2023-06-22T09:58:56;13.58;;;5.70;;
27818;SDS011;15192;44.854;10.046;2023-06-22T10:01:25;10.55;;;6.50;;
27818;SDS011;15192;44.854;10.046;2023-06-22T10:03:55;10.80;;;6.95;;
27818;SDS011;15192;44.854;10.046;2023-06-22T10:06:24;16.03;;;7.30;;
27818;SDS011;15192;44.854;10.046;2023-06-22T10:08:53;14.10;;;6.47;;
27818;SDS011;15192;44.854;10.046;2023-06-22T10:11:22;14.58;;;6.87;;
27818;SDS011;15192;44.854;10.046;2023-06-22T10:13:52;11.20;;;6.58;;
27818;SDS011;15192;44.854;10.046;2023-06-22T10:16:21;15.15;;;7.17;;
27818;SDS011;15192;44.854;10.046;2023-06-22T10:18:53;17.92;;;7.17;;
27818;SDS011;15192;44.854;10.046;2023-06-22T10:21:22;12.63;;;7.12;;
27818;SDS011;15192;44.854;10.046;2023-06-22T10:23:53;10.72;;;7.28;;
27818;SDS011;15192;44.854;10.046;2023-06-22T10:26:22;15.03;;;7.17;;
27818;SDS011;15192;44.854;10.046;2023-06-22T10:28:51;13.90;;;7.15;;
27818;SDS011;15192;44.854;10.046;2023-06-22T10:31:21;13.35;;;7.53;;
27818;SDS011;15192;44.854;10.046;2023-06-22T10:33:49;13.35;;;6.78;;
27818;SDS011;15192;44.854;10.046;2023-06-22T10:36:18;18.25;;;8.75;;
27818;SDS011;15192;44.854;10.046;2023-06-22T10:38:48;14.80;;;7.50;;
27818;SDS011;15192;44.854;10.046;2023-06-22T10:41:17;17.75;;;7.30;;
27818;SDS011;15192;44.854;10.046;2023-06-22T10:43:46;16.25;;;7.00;;
27818;SDS011;15192;44.854;10.046;2023-06-22T10:46:15;10.72;;;6.22;;
27818;SDS011;15192;44.854;10.046;2023-06-22T10:48:43;12.70;;;6.65;;
27818;SDS011;15192;44.854;10.046;2023-06-22T10:51:12;12.82;;;6.62;;
27818;SDS011;15192;44.854;10.046;2023-06-22T10:53:41;23.25;;;6.33;;
27818;SDS011;15192;44.854;10.046;2023-06-22T10:56:10;11.88;;;5.87;;
27818;SDS011;15192;44.854;10.046;2023-06-22T10:58:39;15.08;;;6.03;;
27818;SDS011;15192;44.854;10.046;2023-06-22T11:01:08;20.80;;;6.53;;
27818;SDS011;15192;44.854;10.046;2023-06-22T11:03:37;13.22;;;6.87;;
27818;SDS011;15192;44.854;10.046;2023-06-22T11:06:06;19.82;;;7.80;;
27818;SDS011;15192;44.854;10.046;2023-06-22T11:08:35;16.27;;;7.15;;
27818;SDS011;15192;44.854;10.046;2023-06-22T11:11:04;12.60;;;6.87;;
27818;SDS011;15192;44.854;10.046;2023-06-22T11:13:32;22.35;;;7.58;;
27818;SDS011;15192;44.854;10.046;2023-06-22T11:16:01;10.72;;;7.33;;
27818;SDS011;15192;44.854;10.046;2023-06-22T11:18:31;13.93;;;6.90;;
27818;SDS011;15192;44.854;10.046;2023-06-22T11:21:00;12.10;;;6.83;;
27818;SDS011;15192;44.854;10.046;2023-06-22T11:23:29;12.13;;;7.58;;
27818;SDS011;15192;44.854;10.046;2023-06-22T11:25:58;13.55;;;7.37;;
27818;SDS011;15192;44.854;10.046;2023-06-22T11:28:27;10.82;;;6.12;;
27818;SDS011;15192;44.854;10.046;2023-06-22T11:30:56;12.40;;;6.12;;
27818;SDS011;15192;44.854;10.046;2023-06-22T11:33:25;9.13;;;6.22;;
27818;SDS011;15192;44.854;10.046;2023-06-22T11:35:54;16.05;;;6.62;;
27818;SDS011;15192;44.854;10.046;2023-06-22T11:38:23;12.50;;;6.45;;
27818;SDS011;15192;44.854;10.046;2023-06-22T11:40:52;17.10;;;6.60;;
27818;SDS011;15192;44.854;10.046;2023-06-22T11:43:21;15.53;;;6.05;;
27818;SDS011;15192;44.854;10.046;2023-06-22T11:45:50;13.48;;;6.33;;
27818;SDS011;15192;44.854;10.046;2023-06-22T11:48:19;12.18;;;6.28;;
27818;SDS011;15192;44.854;10.046;2023-06-22T11:50:48;13.65;;;6.03;;
27818;SDS011;15192;44.854;10.046;2023-06-22T11:53:17;15.63;;;6.53;;
27818;SDS011;15192;44.854;10.046;2023-06-22T11:55:46;20.02;;;7.25;;
27818;SDS011;15192;44.854;10.046;2023-06-22T11:58:16;12.65;;;6.20;;
27818;SDS011;15192;44.854;10.046;2023-06-22T12:00:45;16.35;;;6.60;;
27818;SDS011;15192;44.854;10.046;2023-06-22T12:03:14;13.03;;;6.85;;
27818;SDS011;15192;44.854;10.046;2023-06-22T12:05:43;8.63;;;5.95;;
27818;SDS011;15192;44.854;10.046;2023-06-22T12:08:13;12.70;;;6.55;;
27818;SDS011;15192;44.854;10.046;2023-06-22T12:10:42;11.15;;;6.20;;
27818;SDS011;15192;44.854;10.046;2023-06-22T12:13:11;10.53;;;6.22;;
27818;SDS011;15192;44.854;10.046;2023-06-22T12:15:40;12.65;;;6.97;;
27818;SDS011;15192;44.854;10.046;2023-06-22T12:18:09;13.72;;;6.78;;
27818;SDS011;15192;44.854;10.046;2023-06-22T12:20:39;10.38;;;6.33;;
27818;SDS011;15192;44.854;10.046;2023-06-22T12:23:07;14.60;;;5.95;;
27818;SDS011;15192;44.854;10.046;2023-06-22T12:25:36;12.65;;;6.70;;
27818;SDS011;15192;44.854;10.046;2023-06-22T12:28:05;13.03;;;6.58;;
27818;SDS011;15192;44.854;10.046;2023-06-22T12:30:34;13.15;;;5.92;;
27818;SDS011;15192;44.854;10.046;2023-06-22T12:33:03;16.20;;;7.20;;
27818;SDS011;15192;44.854;10.046;2023-06-22T12:35:32;9.60;;;5.95;;
27818;SDS011;15192;44.854;10.046;2023-06-22T12:38:02;7.87;;;6.00;;
27818;SDS011;15192;44.854;10.046;2023-06-22T12:40:38;18.97;;;7.33;;
27818;SDS011;15192;44.854;10.046;2023-06-22T12:43:03;11.30;;;6.33;;
27818;SDS011;15192;44.854;10.046;2023-06-22T12:45:32;11.90;;;5.92;;
27818;SDS011;15192;44.854;10.046;2023-06-22T12:48:01;15.93;;;7.08;;
27818;SDS011;15192;44.854;10.046;2023-06-22T12:50:30;20.23;;;6.20;;
27818;SDS011;15192;44.854;10.046;2023-06-22T12:52:59;10.23;;;5.80;;
27818;SDS011;15192;44.854;10.046;2023-06-22T12:55:30;13.22;;;6.58;;
27818;SDS011;15192;44.854;10.046;2023-06-22T12:57:59;17.05;;;5.97;;
27818;SDS011;15192;44.854;10.046;2023-06-22T13:00:28;9.93;;;6.25;;
27818;SDS011;15192;44.854;10.046;2023-06-22T13:02:57;10.43;;;6.47;;
27818;SDS011;15192;44.854;10.046;2023-06-22T13:05:26;13.45;;;6.08;;
27818;SDS011;15192;44.854;10.046;2023-06-22T13:07:55;12.20;;;5.90;;
27818;SDS011;15192;44.854;10.046;2023-06-22T13:10:24;11.30;;;6.17;;
27818;SDS011;15192;44.854;10.046;2023-06-22T13:12:53;10.00;;;5.67;;
27818;SDS011;15192;44.854;10.046;2023-06-22T13:15:23;14.63;;;5.83;;
27818;SDS011;15192;44.854;10.046;2023-06-22T13:17:52;13.43;;;5.92;;
27818;SDS011;15192;44.854;10.046;2023-06-22T13:20:21;13.15;;;6.90;;
27818;SDS011;15192;44.854;10.046;2023-06-22T13:22:50;12.28;;;6.53;;
27818;SDS011;15192;44.854;10.046;2023-06-22T13:25:19;9.70;;;6.05;;
27818;SDS011;15192;44.854;10.046;2023-06-22T13:27:49;11.63;;;5.87;;
27818;SDS011;15192;44.854;10.046;2023-06-22T13:30:18;9.23;;;6.40;;
27818;SDS011;15192;44.854;10.046;2023-06-22T13:32:47;17.67;;;6.47;;
27818;SDS011;15192;44.854;10.046;2023-06-22T13:35:16;11.35;;;6.17;;
27818;SDS011;15192;44.854;10.046;2023-06-22T13:37:45;10.48;;;6.97;;
27818;SDS011;15192;44.854;10.046;2023-06-22T13:40:14;11.05;;;6.72;;
27818;SDS011;15192;44.854;10.046;2023-06-22T13:42:43;17.48;;;6.45;;
27818;SDS011;15192;44.854;10.046;2023-06-22T13:45:12;12.55;;;6.47;;
27818;SDS011;15192;44.854;10.046;2023-06-22T13:47:43;12.85;;;6.70;;
27818;SDS011;15192;44.854;10.046;2023-06-22T13:50:11;15.08;;;7.78;;
27818;SDS011;15192;44.854;10.046;2023-06-22T13:52:40;11.60;;;6.28;;
27818;SDS011;15192;44.854;10.046;2023-06-22T13:55:09;14.35;;;6.42;;
27818;SDS011;15192;44.854;10.046;2023-06-22T13:57:38;10.48;;;7.15;;
27818;SDS011;15192;44.854;10.046;2023-06-22T14:00:07;14.63;;;6.92;;
27818;SDS011;15192;44.854;10.046;2023-06-22T14:02:39;18.10;;;6.67;;
27818;SDS011;15192;44.854;10.046;2023-06-22T14:05:08;19.82;;;7.12;;
27818;SDS011;15192;44.854;10.046;2023-06-22T14:07:38;14.28;;;6.90;;
27818;SDS011;15192;44.854;10.046;2023-06-22T14:10:07;12.68;;;6.75;;
27818;SDS011;15192;44.854;10.046;2023-06-22T14:12:36;16.65;;;6.50;;
27818;SDS011;15192;44.854;10.046;2023-06-22T14:15:05;15.45;;;6.22;;
27818;SDS011;15192;44.854;10.046;2023-06-22T14:17:35;13.70;;;6.05;;
27818;SDS011;15192;44.854;10.046;2023-06-22T14:20:04;19.65;;;7.03;;
27818;SDS011;15192;44.854;10.046;2023-06-22T14:22:48;8.45;;;6.17;;
27818;SDS011;15192;44.854;10.046;2023-06-22T14:25:17;11.33;;;6.20;;
27818;SDS011;15192;44.854;10.046;2023-06-22T14:27:46;9.70;;;6.22;;
27818;SDS011;15192;44.854;10.046;2023-06-22T14:30:15;15.50;;;6.70;;
27818;SDS011;15192;44.854;10.046;2023-06-22T14:32:44;13.60;;;6.60;;
27818;SDS011;15192;44.854;10.046;2023-06-22T14:35:13;15.80;;;6.97;;
27818;SDS011;15192;44.854;10.046;2023-06-22T14:37:41;12.30;;;6.00;;
27818;SDS011;15192;44.854;10.046;2023-06-22T14:40:10;12.68;;;6.42;;